sensor_id;sensor_type;location;lat;lon;timestamp;pressure;altitude;pressure_sealevel;temperature;humidity
5574;BME280;2563;52.242;7.956;2022-12-07T00:01:35;101063.00;;;4.33;100.00
5574;BME280;2563;52.242;7.956;2022-12-07T00:04:03;101068.09;;;4.33;100.00
5574;BME280;2563;52.242;7.956;2022-12-07T00:06:33;101072.34;;;4.32;100.00
5574;BME280;2563;52.242;7.956;2022-12-07T00:08:59;101085.94;;;4.34;100.00
5574;BME280;2563;52.242;7.956;2022-12-07T00:11:25;101087.66;;;4.35;100.00
5574;BME280;2563;52.242;7.956;2022-12-07T00:13:52;101092.75;;;4.35;100.00
5574;BME280;2563;52.242;7.956;2022-12-07T00:16:21;101095.28;;;4.35;100.00
5574;BME280;2563;52.242;7.956;2022-12-07T00:18:47;101100.41;;;4.35;100.00
5574;BME280;2563;52.242;7.956;2022-12-07T00:21:18;101096.97;;;4.33;100.00
5574;BME280;2563;52.242;7.956;2022-12-07T00:23:45;101104.66;;;4.36;100.00
5574;BME280;2563;52.242;7.956;2022-12-07T00:26:27;101107.22;;;4.36;100.00
5574;BME280;2563;52.242;7.956;2022-12-07T00:28:55;101109.75;;;4.35;100.00
5574;BME280;2563;52.242;7.956;2022-12-07T00:31:24;101102.06;;;4.33;100.00
5574;BME280;2563;52.242;7.956;2022-12-07T00:33:50;101114.81;;;4.33;100.00
5574;BME280;2563;52.242;7.956;2022-12-07T00:36:19;101107.16;;;4.33;100.00
5574;BME280;2563;52.242;7.956;2022-12-07T00:38:45;101113.13;;;4.32;100.00
5574;BME280;2563;52.242;7.956;2022-12-07T00:43:37;101115.59;;;4.28;100.00
5574;BME280;2563;52.242;7.956;2022-12-07T00:46:04;101120.69;;;4.26;100.00
5574;BME280;2563;52.242;7.956;2022-12-07T00:48:29;101120.66;;;4.23;100.00
5574;BME280;2563;52.242;7.956;2022-12-07T00:50:55;101127.38;;;4.16;100.00
5574;BME280;2563;52.242;7.956;2022-12-07T00:53:20;101132.41;;;4.10;100.00
5574;BME280;2563;52.242;7.956;2022-12-07T00:55:46;101132.31;;;4.02;100.00
5574;BME280;2563;52.242;7.956;2022-12-07T00:58:11;101127.97;;;3.94;100.00
5574;BME280;2563;52.242;7.956;2022-12-07T01:00:39;101133.00;;;3.89;100.00
5574;BME280;2563;52.242;7.956;2022-12-07T01:03:06;101130.38;;;3.84;100.00
5574;BME280;2563;52.242;7.956;2022-12-07T01:05:31;101141.31;;;3.77;100.00
5574;BME280;2563;52.242;7.956;2022-12-07T01:07:57;101140.47;;;3.77;100.00
5574;BME280;2563;52.242;7.956;2022-12-07T01:10:22;101140.44;;;3.75;100.00
5574;BME280;2563;52.242;7.956;2022-12-07T01:12:48;101137.97;;;3.80;100.00
5574;BME280;2563;52.242;7.956;2022-12-07T01:15:13;101126.13;;;3.82;100.00
5574;BME280;2563;52.242;7.956;2022-12-07T01:17:39;101156.66;;;3.82;100.00
5574;BME280;2563;52.242;7.956;2022-12-07T01:20:06;101155.81;;;3.81;100.00
5574;BME280;2563;52.242;7.956;2022-12-07T01:22:36;101163.44;;;3.80;100.00
5574;BME280;2563;52.242;7.956;2022-12-07T01:25:02;101166.84;;;3.82;100.00
5574;BME280;2563;52.242;7.956;2022-12-07T01:27:28;101169.41;;;3.82;100.00
5574;BME280;2563;52.242;7.956;2022-12-07T01:29:53;101171.03;;;3.77;100.00
5574;BME280;2563;52.242;7.956;2022-12-07T01:32:18;101177.78;;;3.75;100.00
5574;BME280;2563;52.242;7.956;2022-12-07T01:34:44;101176.88;;;3.70;100.00
5574;BME280;2563;52.242;7.956;2022-12-07T01:37:09;101174.22;;;3.63;100.00
5574;BME280;2563;52.242;7.956;2022-12-07T01:39:34;101176.69;;;3.57;100.00
5574;BME280;2563;52.242;7.956;2022-12-07T01:42:00;101176.63;;;3.54;100.00
5574;BME280;2563;52.242;7.956;2022-12-07T01:44:29;101185.13;;;3.53;100.00
5574;BME280;2563;52.242;7.956;2022-12-07T01:47:02;101190.91;;;3.45;100.00
5574;BME280;2563;52.242;7.956;2022-12-07T01:54:41;101190.75;;;3.34;100.00
5574;BME280;2563;52.242;7.956;2022-12-07T01:57:07;101193.28;;;3.31;100.00
5574;BME280;2563;52.242;7.956;2022-12-07T01:59:34;101194.94;;;3.29;100.00
5574;BME280;2563;52.242;7.956;2022-12-07T02:02:02;101197.34;;;3.23;100.00
5574;BME280;2563;52.242;7.956;2022-12-07T02:04:30;101194.88;;;3.26;100.00
5574;BME280;2563;52.242;7.956;2022-12-07T02:06:55;101205.84;;;3.23;100.00
5574;BME280;2563;52.242;7.956;2022-12-07T02:09:22;101205.00;;;3.23;100.00
5574;BME280;2563;52.242;7.956;2022-12-07T02:11:47;101205.78;;;3.20;100.00
5574;BME280;2563;52.242;7.956;2022-12-07T02:14:13;101200.63;;;3.15;100.00
5574;BME280;2563;52.242;7.956;2022-12-07T02:24:55;101204.59;;;2.98;100.00
5574;BME280;2563;52.242;7.956;2022-12-07T02:27:45;101201.13;;;2.94;100.00
5574;BME280;2563;52.242;7.956;2022-12-07T02:30:14;101204.38;;;2.86;100.00
5574;BME280;2563;52.242;7.956;2022-12-07T02:35:21;101195.91;;;2.87;100.00
5574;BME280;2563;52.242;7.956;2022-12-07T02:40:55;101207.69;;;2.82;100.00
5574;BME280;2563;52.242;7.956;2022-12-07T02:43:39;101211.88;;;2.80;100.00
5574;BME280;2563;52.242;7.956;2022-12-07T02:46:20;101205.03;;;2.75;100.00
5574;BME280;2563;52.242;7.956;2022-12-07T02:48:47;101202.50;;;2.75;100.00
5574;BME280;2563;52.242;7.956;2022-12-07T02:51:13;101211.75;;;2.72;100.00
5574;BME280;2563;52.242;7.956;2022-12-07T02:53:41;101208.31;;;2.70;100.00
5574;BME280;2563;52.242;7.956;2022-12-07T02:56:23;101206.59;;;2.69;100.00
5574;BME280;2563;52.242;7.956;2022-12-07T03:01:50;101220.94;;;2.65;100.00
5574;BME280;2563;52.242;7.956;2022-12-07T03:06:54;101214.00;;;2.58;100.00
5574;BME280;2563;52.242;7.956;2022-12-07T03:09:43;101212.22;;;2.52;100.00
5574;BME280;2563;52.242;7.956;2022-12-07T03:12:17;101202.94;;;2.54;100.00
5574;BME280;2563;52.242;7.956;2022-12-07T03:14:52;101211.41;;;2.55;100.00
5574;BME280;2563;52.242;7.956;2022-12-07T03:17:26;101217.41;;;2.57;100.00
5574;BME280;2563;52.242;7.956;2022-12-07T03:19:56;101215.75;;;2.59;100.00
5574;BME280;2563;52.242;7.956;2022-12-07T03:22:22;101213.19;;;2.59;100.00
5574;BME280;2563;52.242;7.956;2022-12-07T03:24:55;101219.19;;;2.61;100.00
5574;BME280;2563;52.242;7.956;2022-12-07T03:27:35;101219.91;;;2.55;100.00
5574;BME280;2563;52.242;7.956;2022-12-07T03:30:08;101228.34;;;2.54;100.00
5574;BME280;2563;52.242;7.956;2022-12-07T03:33:37;101224.88;;;2.49;100.00
5574;BME280;2563;52.242;7.956;2022-12-07T03:35:36;101228.16;;;2.45;100.00
5574;BME280;2563;52.242;7.956;2022-12-07T03:38:27;101217.97;;;2.44;100.00
5574;BME280;2563;52.242;7.956;2022-12-07T03:41:08;101223.00;;;2.41;100.00
5574;BME280;2563;52.242;7.956;2022-12-07T03:43:35;101217.88;;;2.39;100.00
5574;BME280;2563;52.242;7.956;2022-12-07T03:48:54;101217.78;;;2.34;100.00
5574;BME280;2563;52.242;7.956;2022-12-07T03:51:30;101226.19;;;2.32;100.00
5574;BME280;2563;52.242;7.956;2022-12-07T03:54:07;101224.44;;;2.29;100.00
5574;BME280;2563;52.242;7.956;2022-12-07T03:56:35;101221.91;;;2.29;100.00
5574;BME280;2563;52.242;7.956;2022-12-07T03:59:01;101222.75;;;2.28;100.00
5574;BME280;2563;52.242;7.956;2022-12-07T04:01:27;101224.34;;;2.25;100.00
5574;BME280;2563;52.242;7.956;2022-12-07T04:03:52;101226.09;;;2.26;100.00
5574;BME280;2563;52.242;7.956;2022-12-07T04:06:18;101226.09;;;2.26;100.00
5574;BME280;2563;52.242;7.956;2022-12-07T04:08:43;101231.97;;;2.23;100.00
5574;BME280;2563;52.242;7.956;2022-12-07T04:11:09;101227.75;;;2.24;100.00
5574;BME280;2563;52.242;7.956;2022-12-07T04:13:34;101228.53;;;2.21;100.00
5574;BME280;2563;52.242;7.956;2022-12-07T04:16:20;101240.34;;;2.19;100.00
5574;BME280;2563;52.242;7.956;2022-12-07T04:18:45;101243.88;;;2.27;100.00
5574;BME280;2563;52.242;7.956;2022-12-07T04:21:11;101247.41;;;2.34;100.00
5574;BME280;2563;52.242;7.956;2022-12-07T04:23:36;101250.06;;;2.39;100.00
5574;BME280;2563;52.242;7.956;2022-12-07T04:26:01;101250.09;;;2.40;100.00
5574;BME280;2563;52.242;7.956;2022-12-07T04:28:27;101249.28;;;2.43;100.00
5574;BME280;2563;52.242;7.956;2022-12-07T04:30:52;101251.88;;;2.44;100.00
5574;BME280;2563;52.242;7.956;2022-12-07T04:33:17;101247.66;;;2.45;100.00
5574;BME280;2563;52.242;7.956;2022-12-07T04:35:43;101242.63;;;2.48;100.00
5574;BME280;2563;52.242;7.956;2022-12-07T04:38:08;101247.75;;;2.51;100.00
5574;BME280;2563;52.242;7.956;2022-12-07T04:40:34;101252.91;;;2.54;100.00
5574;BME280;2563;52.242;7.956;2022-12-07T04:42:59;101246.16;;;2.56;100.00
5574;BME280;2563;52.242;7.956;2022-12-07T04:45:25;101243.66;;;2.58;100.00
5574;BME280;2563;52.242;7.956;2022-12-07T04:47:50;101247.94;;;2.60;100.00
5574;BME280;2563;52.242;7.956;2022-12-07T04:50:16;101247.94;;;2.59;100.00
5574;BME280;2563;52.242;7.956;2022-12-07T04:52:41;101250.47;;;2.59;100.00
5574;BME280;2563;52.242;7.956;2022-12-07T04:55:06;101252.06;;;2.55;100.00
5574;BME280;2563;52.242;7.956;2022-12-07T04:57:32;101254.47;;;2.49;100.00
5574;BME280;2563;52.242;7.956;2022-12-07T04:59:57;101266.31;;;2.47;100.00
5574;BME280;2563;52.242;7.956;2022-12-07T05:02:23;101256.06;;;2.42;100.00
5574;BME280;2563;52.242;7.956;2022-12-07T05:04:48;101261.91;;;2.38;100.00
5574;BME280;2563;52.242;7.956;2022-12-07T05:07:13;101260.94;;;2.33;100.00
5574;BME280;2563;52.242;7.956;2022-12-07T05:09:39;101265.13;;;2.31;100.00
5574;BME280;2563;52.242;7.956;2022-12-07T05:12:04;101262.53;;;2.28;100.00
5574;BME280;2563;52.242;7.956;2022-12-07T05:14:29;101261.66;;;2.26;100.00
5574;BME280;2563;52.242;7.956;2022-12-07T05:16:55;101265.09;;;2.28;100.00
5574;BME280;2563;52.242;7.956;2022-12-07T05:19:20;101263.34;;;2.27;100.00
5574;BME280;2563;52.242;7.956;2022-12-07T05:21:46;101259.06;;;2.24;100.00
5574;BME280;2563;52.242;7.956;2022-12-07T05:24:13;101265.84;;;2.24;100.00
5574;BME280;2563;52.242;7.956;2022-12-07T05:26:39;101261.59;;;2.24;100.00
5574;BME280;2563;52.242;7.956;2022-12-07T05:29:05;101259.06;;;2.24;100.00
5574;BME280;2563;52.242;7.956;2022-12-07T05:31:30;101259.91;;;2.23;100.00
5574;BME280;2563;52.242;7.956;2022-12-07T05:33:56;101262.44;;;2.23;100.00
5574;BME280;2563;52.242;7.956;2022-12-07T05:36:22;101264.19;;;2.27;100.00
5574;BME280;2563;52.242;7.956;2022-12-07T05:38:48;101277.75;;;2.26;100.00
5574;BME280;2563;52.242;7.956;2022-12-07T05:41:18;101274.44;;;2.30;100.00
5574;BME280;2563;52.242;7.956;2022-12-07T05:44:03;101260.09;;;2.32;100.00
5574;BME280;2563;52.242;7.956;2022-12-07T05:46:28;101264.44;;;2.38;100.00
5574;BME280;2563;52.242;7.956;2022-12-07T05:48:54;101269.66;;;2.44;100.00
5574;BME280;2563;52.242;7.956;2022-12-07T05:51:19;101257.81;;;2.45;100.00
5574;BME280;2563;52.242;7.956;2022-12-07T05:53:45;101272.22;;;2.46;100.00
5574;BME280;2563;52.242;7.956;2022-12-07T05:56:11;101270.53;;;2.46;100.00
5574;BME280;2563;52.242;7.956;2022-12-07T05:58:36;101269.72;;;2.47;100.00
5574;BME280;2563;52.242;7.956;2022-12-07T06:01:20;101272.97;;;2.42;100.00
5574;BME280;2563;52.242;7.956;2022-12-07T06:03:46;101268.66;;;2.38;100.00
5574;BME280;2563;52.242;7.956;2022-12-07T06:06:11;101264.28;;;2.32;100.00
5574;BME280;2563;52.242;7.956;2022-12-07T06:08:37;101271.88;;;2.29;100.00
5574;BME280;2563;52.242;7.956;2022-12-07T06:11:02;101272.66;;;2.26;100.00
5574;BME280;2563;52.242;7.956;2022-12-07T06:13:46;101264.28;;;2.30;100.00
5574;BME280;2563;52.242;7.956;2022-12-07T06:16:11;101271.13;;;2.34;100.00
5574;BME280;2563;52.242;7.956;2022-12-07T06:18:37;101273.66;;;2.34;100.00
5574;BME280;2563;52.242;7.956;2022-12-07T06:21:02;101268.63;;;2.36;100.00
5574;BME280;2563;52.242;7.956;2022-12-07T06:23:27;101272.03;;;2.37;100.00
5574;BME280;2563;52.242;7.956;2022-12-07T06:25:53;101266.94;;;2.35;100.00
5574;BME280;2563;52.242;7.956;2022-12-07T06:28:18;101271.13;;;2.33;100.00
5574;BME280;2563;52.242;7.956;2022-12-07T06:30:44;101275.34;;;2.32;100.00
5574;BME280;2563;52.242;7.956;2022-12-07T06:33:09;101272.81;;;2.32;100.00
5574;BME280;2563;52.242;7.956;2022-12-07T06:35:34;101271.91;;;2.32;100.00
5574;BME280;2563;52.242;7.956;2022-12-07T06:38:00;101276.22;;;2.34;100.00
5574;BME280;2563;52.242;7.956;2022-12-07T06:40:25;101278.94;;;2.44;100.00
5574;BME280;2563;52.242;7.956;2022-12-07T06:42:52;101279.00;;;2.45;100.00
5574;BME280;2563;52.242;7.956;2022-12-07T06:45:17;101280.78;;;2.49;100.00
5574;BME280;2563;52.242;7.956;2022-12-07T06:47:42;101282.44;;;2.49;100.00
5574;BME280;2563;52.242;7.956;2022-12-07T06:50:08;101286.66;;;2.47;100.00
5574;BME280;2563;52.242;7.956;2022-12-07T06:52:34;101272.91;;;2.39;100.00
5574;BME280;2563;52.242;7.956;2022-12-07T06:54:59;101283.81;;;2.33;100.00
5574;BME280;2563;52.242;7.956;2022-12-07T06:57:25;101281.91;;;2.23;100.00
5574;BME280;2563;52.242;7.956;2022-12-07T06:59:51;101291.09;;;2.18;100.00
5574;BME280;2563;52.242;7.956;2022-12-07T07:02:16;101286.78;;;2.15;100.00
5574;BME280;2563;52.242;7.956;2022-12-07T07:04:43;101285.91;;;2.13;100.00
5574;BME280;2563;52.242;7.956;2022-12-07T07:07:08;101281.56;;;2.07;100.00
5574;BME280;2563;52.242;7.956;2022-12-07T07:09:33;101277.25;;;2.05;100.00
5574;BME280;2563;52.242;7.956;2022-12-07T07:11:59;101287.38;;;2.02;100.00
5574;BME280;2563;52.242;7.956;2022-12-07T07:14:24;101283.94;;;2.00;100.00
5574;BME280;2563;52.242;7.956;2022-12-07T07:16:50;101285.63;;;2.01;100.00
5574;BME280;2563;52.242;7.956;2022-12-07T07:19:15;101287.41;;;2.05;100.00
5574;BME280;2563;52.242;7.956;2022-12-07T07:21:40;101293.28;;;2.02;100.00
5574;BME280;2563;52.242;7.956;2022-12-07T07:24:06;101291.59;;;2.03;100.00
5574;BME280;2563;52.242;7.956;2022-12-07T07:26:31;101287.41;;;2.05;100.00
5574;BME280;2563;52.242;7.956;2022-12-07T07:28:57;101290.84;;;2.07;100.00
5574;BME280;2563;52.242;7.956;2022-12-07T07:31:22;101289.13;;;2.06;100.00
5574;BME280;2563;52.242;7.956;2022-12-07T07:33:48;101283.19;;;2.05;100.00
5574;BME280;2563;52.242;7.956;2022-12-07T07:36:13;101295.84;;;2.02;100.00
5574;BME280;2563;52.242;7.956;2022-12-07T07:38:38;101292.34;;;1.99;100.00
5574;BME280;2563;52.242;7.956;2022-12-07T07:41:04;101294.09;;;2.00;100.00
5574;BME280;2563;52.242;7.956;2022-12-07T07:43:30;101299.22;;;2.03;100.00
5574;BME280;2563;52.242;7.956;2022-12-07T07:45:55;101301.81;;;2.06;100.00
5574;BME280;2563;52.242;7.956;2022-12-07T07:48:21;101305.16;;;2.03;100.00
5574;BME280;2563;52.242;7.956;2022-12-07T07:50:48;101306.81;;;2.01;100.00
5574;BME280;2563;52.242;7.956;2022-12-07T07:53:13;101303.38;;;1.99;100.00
5574;BME280;2563;52.242;7.956;2022-12-07T07:55:38;101302.50;;;1.99;100.00
5574;BME280;2563;52.242;7.956;2022-12-07T07:58:04;101303.22;;;1.93;100.00
5574;BME280;2563;52.242;7.956;2022-12-07T08:00:29;101312.59;;;1.96;100.00
5574;BME280;2563;52.242;7.956;2022-12-07T08:02:54;101304.19;;;1.97;100.00
5574;BME280;2563;52.242;7.956;2022-12-07T08:05:20;101307.69;;;2.02;100.00
5574;BME280;2563;52.242;7.956;2022-12-07T08:07:45;101314.59;;;2.09;100.00
5574;BME280;2563;52.242;7.956;2022-12-07T08:10:13;101312.34;;;2.21;100.00
5574;BME280;2563;52.242;7.956;2022-12-07T08:12:40;101308.25;;;2.28;100.00
5574;BME280;2563;52.242;7.956;2022-12-07T08:15:27;101303.28;;;2.32;100.00
5574;BME280;2563;52.242;7.956;2022-12-07T08:17:53;101305.00;;;2.33;100.00
5574;BME280;2563;52.242;7.956;2022-12-07T08:20:19;101305.84;;;2.34;100.00
5574;BME280;2563;52.242;7.956;2022-12-07T08:22:45;101300.66;;;2.28;100.00
5574;BME280;2563;52.242;7.956;2022-12-07T08:25:10;101301.34;;;2.22;100.00
5574;BME280;2563;52.242;7.956;2022-12-07T08:27:35;101298.69;;;2.16;100.00
5574;BME280;2563;52.242;7.956;2022-12-07T08:30:01;101300.38;;;2.16;100.00
5574;BME280;2563;52.242;7.956;2022-12-07T08:32:26;101297.84;;;2.17;100.00
5574;BME280;2563;52.242;7.956;2022-12-07T08:34:52;101298.16;;;2.31;100.00
5574;BME280;2563;52.242;7.956;2022-12-07T08:37:17;101311.06;;;2.42;100.00
5574;BME280;2563;52.242;7.956;2022-12-07T08:39:43;101309.63;;;2.51;100.00
5574;BME280;2563;52.242;7.956;2022-12-07T08:42:08;101308.03;;;2.58;100.00
5574;BME280;2563;52.242;7.956;2022-12-07T08:44:33;101303.03;;;2.61;100.00
5574;BME280;2563;52.242;7.956;2022-12-07T08:47:02;101304.09;;;2.72;100.00
5574;BME280;2563;52.242;7.956;2022-12-07T08:49:37;101299.91;;;2.74;100.00
5574;BME280;2563;52.242;7.956;2022-12-07T08:52:04;101309.97;;;2.70;100.00
5574;BME280;2563;52.242;7.956;2022-12-07T08:54:31;101296.47;;;2.71;100.00
5574;BME280;2563;52.242;7.956;2022-12-07T08:56:58;101304.09;;;2.72;100.00
5574;BME280;2563;52.242;7.956;2022-12-07T08:59:24;101288.94;;;2.75;100.00
5574;BME280;2563;52.242;7.956;2022-12-07T09:01:50;101301.75;;;2.82;100.00
5574;BME280;2563;52.242;7.956;2022-12-07T09:04:16;101295.00;;;2.84;100.00
5574;BME280;2563;52.242;7.956;2022-12-07T09:06:42;101290.91;;;2.90;100.00
5574;BME280;2563;52.242;7.956;2022-12-07T09:09:08;101294.53;;;3.03;100.00
5574;BME280;2563;52.242;7.956;2022-12-07T09:11:35;101281.09;;;3.10;100.00
5574;BME280;2563;52.242;7.956;2022-12-07T09:14:00;101276.06;;;3.13;100.00
5574;BME280;2563;52.242;7.956;2022-12-07T09:16:26;101272.69;;;3.14;100.00
5574;BME280;2563;52.242;7.956;2022-12-07T09:18:51;101275.31;;;3.19;100.00
5574;BME280;2563;52.242;7.956;2022-12-07T09:21:16;101260.88;;;3.16;100.00
5574;BME280;2563;52.242;7.956;2022-12-07T09:23:42;101252.50;;;3.24;100.00
5574;BME280;2563;52.242;7.956;2022-12-07T09:26:07;101250.91;;;3.29;100.00
5574;BME280;2563;52.242;7.956;2022-12-07T09:28:33;101260.34;;;3.36;100.00
5574;BME280;2563;52.242;7.956;2022-12-07T09:30:59;101251.06;;;3.38;100.00
5574;BME280;2563;52.242;7.956;2022-12-07T09:33:25;101251.88;;;3.35;100.00
5574;BME280;2563;52.242;7.956;2022-12-07T09:35:51;101248.44;;;3.33;100.00
5574;BME280;2563;52.242;7.956;2022-12-07T09:38:18;101232.34;;;3.36;100.00
5574;BME280;2563;52.242;7.956;2022-12-07T09:40:44;101237.53;;;3.42;100.00
5574;BME280;2563;52.242;7.956;2022-12-07T09:43:22;101231.75;;;3.51;100.00
5574;BME280;2563;52.242;7.956;2022-12-07T09:45:54;101226.69;;;3.52;100.00
5574;BME280;2563;52.242;7.956;2022-12-07T09:48:25;101216.50;;;3.52;100.00
5574;BME280;2563;52.242;7.956;2022-12-07T09:50:55;101214.81;;;3.53;100.00
5574;BME280;2563;52.242;7.956;2022-12-07T09:53:42;101202.22;;;3.62;100.00
5574;BME280;2563;52.242;7.956;2022-12-07T09:56:11;101194.63;;;3.65;100.00
5574;BME280;2563;52.242;7.956;2022-12-07T09:58:38;101187.84;;;3.64;100.00
5574;BME280;2563;52.242;7.956;2022-12-07T10:01:20;101181.09;;;3.68;100.00
5574;BME280;2563;52.242;7.956;2022-12-07T10:03:52;101176.91;;;3.73;100.00
5574;BME280;2563;52.242;7.956;2022-12-07T10:06:18;101171.03;;;3.77;100.00
5574;BME280;2563;52.242;7.956;2022-12-07T10:08:43;101153.28;;;3.83;100.00
5574;BME280;2563;52.242;7.956;2022-12-07T10:11:10;101139.03;;;3.96;100.00
5574;BME280;2563;52.242;7.956;2022-12-07T10:13:40;101126.41;;;4.05;100.00
5574;BME280;2563;52.242;7.956;2022-12-07T10:16:07;101115.41;;;4.11;100.00
5574;BME280;2563;52.242;7.956;2022-12-07T10:18:52;101104.34;;;4.05;100.00
5574;BME280;2563;52.242;7.956;2022-12-07T10:21:25;101084.81;;;4.06;100.00
5574;BME280;2563;52.242;7.956;2022-12-07T10:24:03;101069.56;;;4.11;100.00
5574;BME280;2563;52.242;7.956;2022-12-07T10:26:33;101050.84;;;4.05;100.00
5574;BME280;2563;52.242;7.956;2022-12-07T10:29:01;101039.84;;;4.11;100.00
5574;BME280;2563;52.242;7.956;2022-12-07T10:31:27;101028.06;;;4.19;100.00
5574;BME280;2563;52.242;7.956;2022-12-07T10:38:52;100979.59;;;4.16;100.00
5574;BME280;2563;52.242;7.956;2022-12-07T10:41:18;100954.91;;;4.08;100.00
5574;BME280;2563;52.242;7.956;2022-12-07T10:43:49;100952.34;;;4.06;100.00
5574;BME280;2563;52.242;7.956;2022-12-07T11:13:23;100775.84;;;4.22;100.00
5574;BME280;2563;52.242;7.956;2022-12-07T11:21:51;100640.06;;;4.56;100.00
5574;BME280;2563;52.242;7.956;2022-12-07T11:35:36;100551.69;;;4.76;100.00
5574;BME280;2563;52.242;7.956;2022-12-07T11:38:31;100538.09;;;4.74;100.00
5574;BME280;2563;52.242;7.956;2022-12-07T11:41:02;100524.50;;;4.72;100.00
5574;BME280;2563;52.242;7.956;2022-12-07T11:44:02;100514.31;;;4.71;100.00
5574;BME280;2563;52.242;7.956;2022-12-07T11:46:47;100499.84;;;4.66;100.00
5574;BME280;2563;52.242;7.956;2022-12-07T11:49:27;100504.94;;;4.80;100.00
5574;BME280;2563;52.242;7.956;2022-12-07T11:51:58;100497.16;;;5.37;100.00
5574;BME280;2563;52.242;7.956;2022-12-07T11:54:30;100501.22;;;5.80;100.00
5574;BME280;2563;52.242;7.956;2022-12-07T11:57:04;100490.75;;;7.15;100.00
5574;BME280;2563;52.242;7.956;2022-12-07T11:59:39;100499.09;;;6.43;100.00
5574;BME280;2563;52.242;7.956;2022-12-07T12:02:14;100507.13;;;5.88;100.00
5574;BME280;2563;52.242;7.956;2022-12-07T12:07:16;100501.41;;;5.41;100.00
5574;BME280;2563;52.242;7.956;2022-12-07T12:09:51;100495.44;;;5.39;100.00
5574;BME280;2563;52.242;7.956;2022-12-07T12:21:17;100474.13;;;5.51;100.00
5574;BME280;2563;52.242;7.956;2022-12-07T12:23:59;100477.47;;;5.65;100.00
5574;BME280;2563;52.242;7.956;2022-12-07T12:26:28;100486.78;;;5.69;100.00
5574;BME280;2563;52.242;7.956;2022-12-07T12:28:59;100487.56;;;5.79;100.00
5574;BME280;2563;52.242;7.956;2022-12-07T12:31:41;100513.09;;;5.87;100.00
5574;BME280;2563;52.242;7.956;2022-12-07T12:34:33;100536.09;;;5.79;100.00
5574;BME280;2563;52.242;7.956;2022-12-07T12:42:56;100571.94;;;5.58;100.00
5574;BME280;2563;52.242;7.956;2022-12-07T12:45:23;100569.38;;;5.62;100.00
5574;BME280;2563;52.242;7.956;2022-12-07T12:50:28;100557.53;;;5.44;100.00
5574;BME280;2563;52.242;7.956;2022-12-07T12:53:01;100551.59;;;5.44;100.00
5574;BME280;2563;52.242;7.956;2022-12-07T12:55:50;100550.69;;;5.54;100.00
5574;BME280;2563;52.242;7.956;2022-12-07T13:03:55;100528.63;;;5.35;100.00
5574;BME280;2563;52.242;7.956;2022-12-07T13:08:50;100508.22;;;5.35;100.00
5574;BME280;2563;52.242;7.956;2022-12-07T13:11:33;100493.75;;;5.33;100.00
5574;BME280;2563;52.242;7.956;2022-12-07T13:14:38;100489.50;;;5.36;100.00
5574;BME280;2563;52.242;7.956;2022-12-07T13:17:57;100454.63;;;5.35;100.00
5574;BME280;2563;52.242;7.956;2022-12-07T13:20:02;100433.31;;;5.45;100.00
5574;BME280;2563;52.242;7.956;2022-12-07T13:25:11;100361.81;;;5.48;100.00
5574;BME280;2563;52.242;7.956;2022-12-07T13:27:40;100310.88;;;5.32;100.00
5574;BME280;2563;52.242;7.956;2022-12-07T13:30:18;100278.63;;;5.22;100.00
5574;BME280;2563;52.242;7.956;2022-12-07T13:32:54;100266.75;;;5.12;100.00
5574;BME280;2563;52.242;7.956;2022-12-07T13:35:30;100250.59;;;5.16;100.00
5574;BME280;2563;52.242;7.956;2022-12-07T13:37:56;100241.25;;;5.12;100.00
5574;BME280;2563;52.242;7.956;2022-12-07T13:40:23;100242.16;;;5.08;100.00
5574;BME280;2563;52.242;7.956;2022-12-07T13:42:57;100232.78;;;5.07;100.00
5574;BME280;2563;52.242;7.956;2022-12-07T13:48:31;100224.38;;;4.96;100.00
5574;BME280;2563;52.242;7.956;2022-12-07T13:51:02;100218.41;;;4.95;100.00
5574;BME280;2563;52.242;7.956;2022-12-07T13:53:28;100209.91;;;4.93;100.00
5574;BME280;2563;52.242;7.956;2022-12-07T13:55:56;100211.66;;;4.88;100.00
5574;BME280;2563;52.242;7.956;2022-12-07T13:58:24;100204.06;;;4.82;100.00
5574;BME280;2563;52.242;7.956;2022-12-07T14:00:49;100207.47;;;4.76;100.00
5574;BME280;2563;52.242;7.956;2022-12-07T14:05:42;100210.00;;;4.82;100.00
5574;BME280;2563;52.242;7.956;2022-12-07T14:10:42;100221.88;;;4.88;100.00
5574;BME280;2563;52.242;7.956;2022-12-07T14:15:57;100218.44;;;4.90;100.00
5574;BME280;2563;52.242;7.956;2022-12-07T14:18:36;100226.06;;;4.97;100.00
5574;BME280;2563;52.242;7.956;2022-12-07T14:21:23;100226.88;;;5.02;100.00
5574;BME280;2563;52.242;7.956;2022-12-07T14:24:09;100222.66;;;5.01;100.00
5574;BME280;2563;52.242;7.956;2022-12-07T14:26:35;100226.94;;;4.96;100.00
5574;BME280;2563;52.242;7.956;2022-12-07T14:29:29;100232.06;;;4.89;100.00
5574;BME280;2563;52.242;7.956;2022-12-07T14:31:57;100229.53;;;4.86;100.00
5574;BME280;2563;52.242;7.956;2022-12-07T14:34:24;100226.16;;;4.83;100.00
5574;BME280;2563;52.242;7.956;2022-12-07T14:36:50;100235.53;;;4.78;100.00
5574;BME280;2563;52.242;7.956;2022-12-07T14:39:16;100230.47;;;4.73;100.00
5574;BME280;2563;52.242;7.956;2022-12-07T14:41:41;100240.69;;;4.68;100.00
5574;BME280;2563;52.242;7.956;2022-12-07T14:44:17;100244.97;;;4.65;100.00
5574;BME280;2563;52.242;7.956;2022-12-07T14:46:42;100244.94;;;4.63;100.00
5574;BME280;2563;52.242;7.956;2022-12-07T14:49:07;100238.16;;;4.64;100.00
5574;BME280;2563;52.242;7.956;2022-12-07T14:51:36;100243.25;;;4.64;100.00
5574;BME280;2563;52.242;7.956;2022-12-07T14:54:04;100244.09;;;4.61;100.00
5574;BME280;2563;52.242;7.956;2022-12-07T14:56:30;100251.78;;;4.60;100.00
5574;BME280;2563;52.242;7.956;2022-12-07T14:58:56;100255.19;;;4.54;100.00
5574;BME280;2563;52.242;7.956;2022-12-07T15:01:21;100258.66;;;4.39;100.00
5574;BME280;2563;52.242;7.956;2022-12-07T15:03:46;100271.47;;;4.15;100.00
5574;BME280;2563;52.242;7.956;2022-12-07T15:06:17;100269.78;;;4.04;100.00
5574;BME280;2563;52.242;7.956;2022-12-07T15:08:43;100268.97;;;3.93;100.00
5574;BME280;2563;52.242;7.956;2022-12-07T15:11:13;100267.28;;;3.86;100.00
5574;BME280;2563;52.242;7.956;2022-12-07T15:13:39;100266.41;;;3.82;100.00
5574;BME280;2563;52.242;7.956;2022-12-07T15:16:23;100268.13;;;3.79;100.00
5574;BME280;2563;52.242;7.956;2022-12-07T15:18:48;100268.13;;;3.80;100.00
5574;BME280;2563;52.242;7.956;2022-12-07T15:21:14;100263.88;;;3.84;100.00